createdAt,value
2023-01-29T05:21:44.388Z,-2.00
2023-01-29T08:26:42.722Z,0.44
2023-01-29T08:27:42.479Z,0.90
2023-01-29T08:28:48.480Z,1.33
2023-01-29T08:29:42.658Z,2.13
2023-01-29T08:30:42.451Z,2.84
2023-01-29T08:31:42.589Z,3.29
2023-01-29T08:32:42.427Z,3.83
2023-01-29T08:33:42.420Z,4.47
2023-01-29T08:34:48.646Z,4.75
2023-01-29T08:35:42.398Z,4.98
2023-01-29T08:36:42.405Z,4.91
2023-01-29T08:37:42.380Z,4.81
2023-01-29T08:38:42.376Z,4.69
2023-01-29T08:40:42.344Z,4.42
2023-01-29T08:41:42.589Z,3.78
2023-01-29T08:42:42.529Z,3.33
2023-01-29T08:43:42.317Z,3.18
2023-01-29T08:44:42.309Z,3.39
2023-01-29T08:45:42.357Z,4.03
2023-01-29T08:46:42.284Z,5.48
2023-01-29T08:47:42.274Z,6.69
2023-01-29T08:48:42.270Z,7.63
2023-01-29T08:49:42.254Z,8.44
2023-01-29T08:50:42.455Z,8.47
2023-01-29T08:51:42.239Z,9.31
2023-01-29T08:52:42.225Z,9.39
2023-01-29T08:53:42.209Z,10.11
2023-01-29T08:54:42.215Z,10.60
2023-01-29T08:55:42.207Z,10.87
2023-01-29T08:56:42.180Z,11.09
2023-01-29T08:57:42.168Z,11.22
2023-01-29T08:58:42.156Z,11.01
2023-01-29T08:59:42.154Z,10.70
2023-01-29T09:00:42.146Z,9.97
2023-01-29T09:01:42.125Z,9.20
2023-01-29T09:02:42.195Z,8.53
2023-01-29T09:03:42.109Z,7.86
2023-01-29T09:04:42.096Z,7.46
2023-01-29T09:05:42.083Z,7.10
2023-01-29T09:06:42.283Z,6.58
2023-01-29T09:07:42.073Z,6.11
2023-01-29T09:08:42.059Z,5.93
2023-01-29T09:09:42.243Z,5.82
2023-01-29T09:10:42.035Z,5.83
2023-01-29T09:11:42.027Z,5.61
2023-01-29T09:12:44.072Z,5.45
2023-01-29T09:13:42.005Z,5.30
2023-01-29T09:14:41.990Z,5.16
2023-01-29T09:15:41.987Z,5.06
2023-01-29T09:16:42.029Z,4.96
2023-01-29T09:17:41.960Z,4.93
2023-01-29T09:18:42.046Z,4.85
2023-01-29T09:19:41.940Z,4.75
2023-01-29T09:20:41.941Z,4.32
2023-01-29T09:21:41.909Z,3.79
2023-01-29T09:22:41.907Z,3.50
2023-01-29T09:23:41.992Z,3.20
2023-01-29T09:24:41.884Z,3.13
2023-01-29T09:25:41.873Z,3.11
2023-01-29T09:26:41.934Z,2.63
2023-01-29T09:27:47.861Z,2.65
2023-01-29T09:28:41.842Z,2.56
2023-01-29T09:29:41.826Z,2.53
2023-01-29T09:30:41.917Z,2.34
2023-01-29T09:31:41.906Z,2.06
2023-01-29T09:32:57.263Z,2.16
2023-01-29T09:33:42.856Z,2.09
2023-01-29T09:34:41.800Z,2.17
2023-01-29T09:35:41.771Z,2.19
2023-01-29T09:36:41.743Z,2.20
2023-01-29T09:37:41.739Z,2.22
2023-01-29T09:38:47.742Z,2.23
2023-01-29T09:39:47.732Z,2.20
2023-01-29T09:40:41.719Z,2.17
2023-01-29T09:41:41.706Z,2.13
2023-01-29T09:42:41.706Z,2.09
2023-01-29T09:43:41.689Z,2.11
2023-01-29T09:44:41.669Z,2.11
2023-01-29T09:45:41.883Z,2.09
2023-01-29T09:46:41.646Z,2.06
2023-01-29T09:47:41.643Z,2.02
2023-01-29T09:48:41.829Z,2.09
2023-01-29T09:49:41.641Z,2.04
2023-01-29T09:50:41.616Z,2.05
2023-01-29T09:51:41.594Z,2.04
2023-01-29T09:52:41.589Z,1.98
2023-01-29T09:53:41.584Z,1.93
2023-01-29T09:54:41.571Z,1.95
2023-01-29T09:55:41.561Z,1.91
2023-01-29T09:56:41.539Z,1.86
2023-01-29T09:57:41.538Z,1.77
2023-01-29T09:58:41.533Z,1.81
2023-01-29T09:59:41.519Z,1.88
2023-01-29T10:00:41.501Z,1.91
2023-01-29T10:01:41.612Z,1.99
2023-01-29T10:02:41.497Z,2.09
2023-01-29T10:03:41.473Z,2.19
2023-01-29T10:04:41.523Z,2.26
2023-01-29T10:05:47.466Z,2.30
2023-01-29T10:06:41.449Z,2.37
2023-01-29T10:07:41.431Z,2.37
2023-01-29T10:08:41.423Z,2.37
2023-01-29T10:09:41.426Z,2.23
2023-01-29T10:10:41.407Z,2.15
2023-01-29T10:11:41.390Z,1.88
2023-01-29T10:12:41.373Z,1.72
2023-01-29T10:13:41.378Z,1.68
2023-01-29T10:14:41.363Z,1.62
2023-01-29T10:15:41.355Z,1.76
2023-01-29T10:16:41.432Z,1.80
2023-01-29T10:17:41.327Z,1.87
2023-01-29T10:18:41.514Z,2.02
2023-01-29T10:19:41.298Z,2.13
2023-01-29T10:20:41.299Z,2.30
2023-01-29T10:21:41.285Z,2.40
2023-01-29T10:22:41.266Z,2.47
2023-01-29T10:23:41.261Z,2.59
2023-01-29T10:24:41.255Z,2.69
2023-01-29T10:25:41.243Z,2.72
2023-01-29T10:26:41.281Z,2.66
2023-01-29T10:27:41.220Z,2.53
2023-01-29T10:28:41.213Z,2.40
2023-01-29T10:29:41.199Z,2.19
2023-01-29T10:30:41.219Z,2.29
2023-01-29T10:31:41.310Z,2.37
2023-01-29T10:32:41.162Z,2.29
2023-01-29T10:34:01.544Z,2.37
2023-01-29T10:34:47.161Z,2.42
2023-01-29T10:35:41.138Z,2.42
2023-01-29T10:36:41.124Z,2.51
2023-01-29T10:37:41.128Z,2.59
2023-01-29T10:38:41.111Z,2.62
2023-01-29T10:39:41.087Z,2.37
2023-01-29T10:40:41.083Z,2.35
2023-01-29T10:41:41.080Z,2.34
2023-01-29T10:42:41.063Z,2.24
2023-01-29T10:43:41.050Z,2.26
2023-01-29T10:44:41.037Z,2.34
2023-01-29T10:45:41.027Z,2.38
2023-01-29T10:46:47.045Z,2.59
2023-01-29T10:47:47.164Z,2.60
2023-01-29T10:48:41.011Z,2.69
2023-01-29T10:49:41.194Z,2.75
2023-01-29T10:50:41.179Z,2.87
2023-01-29T10:51:40.973Z,3.00
2023-01-29T10:52:40.959Z,3.03
2023-01-29T10:53:40.946Z,2.84
2023-01-29T10:54:40.948Z,2.87
2023-01-29T10:55:40.922Z,2.93
2023-01-29T10:56:40.907Z,3.00
2023-01-29T10:57:40.905Z,2.78
2023-01-29T10:58:40.897Z,2.78
2023-01-29T10:59:40.883Z,2.75
2023-01-29T11:00:40.887Z,2.89
2023-01-29T11:02:25.729Z,2.95
2023-01-29T11:03:28.493Z,3.08
2023-01-29T11:04:25.671Z,2.87
2023-01-29T11:05:25.662Z,2.71
2023-01-29T11:06:25.673Z,2.77
2023-01-29T11:07:25.642Z,2.81
2023-01-29T11:08:25.628Z,2.84
2023-01-29T11:09:25.645Z,2.82
2023-01-29T11:10:25.611Z,2.77
2023-01-29T11:11:25.804Z,2.72
2023-01-29T11:12:25.833Z,2.89
2023-01-29T11:13:25.778Z,3.00
2023-01-29T11:14:25.574Z,3.15
2023-01-29T11:15:25.550Z,3.23
2023-01-29T11:16:25.543Z,3.10
2023-01-29T11:17:31.543Z,3.06
2023-01-29T11:18:25.523Z,2.93
2023-01-29T11:19:25.517Z,2.81
2023-01-29T11:20:25.499Z,2.74
2023-01-29T11:21:25.490Z,2.72
2023-01-29T11:22:25.501Z,2.60
2023-01-29T11:23:25.469Z,2.45
2023-01-29T11:24:25.463Z,2.55
2023-01-29T11:25:25.452Z,2.53
2023-01-29T11:26:25.505Z,2.59
2023-01-29T11:27:25.439Z,2.56
2023-01-29T11:28:25.421Z,2.69
2023-01-29T11:29:25.408Z,2.85
2023-01-29T11:30:25.405Z,2.85
2023-01-29T11:31:25.511Z,3.05
2023-01-29T11:32:25.385Z,3.14
2023-01-29T11:33:25.367Z,3.00
2023-01-29T11:34:25.396Z,2.96
2023-01-29T11:35:31.353Z,3.03
2023-01-29T11:36:26.721Z,3.06
2023-01-29T11:37:25.323Z,3.14
2023-01-29T11:38:25.314Z,3.26
2023-01-29T11:39:25.299Z,3.35
2023-01-29T11:40:25.298Z,3.20
2023-01-29T11:41:25.302Z,3.14
2023-01-29T11:42:25.282Z,3.26
2023-01-29T11:43:25.268Z,3.29
2023-01-29T11:44:31.266Z,3.33
2023-01-29T11:45:31.263Z,3.29
2023-01-29T11:46:25.304Z,3.24
2023-01-29T11:47:25.328Z,3.49
2023-01-29T11:48:25.208Z,3.67
2023-01-29T11:49:25.204Z,3.75
2023-01-29T11:50:25.237Z,3.82
2023-01-29T11:51:25.172Z,3.67
2023-01-29T11:52:25.268Z,3.54
2023-01-29T11:53:25.159Z,3.57
2023-01-29T11:54:25.139Z,3.71
2023-01-29T11:55:25.160Z,3.86
2023-01-29T11:56:25.321Z,4.03
2023-01-29T11:57:25.114Z,4.12
2023-01-29T11:58:25.104Z,4.23
2023-01-29T11:59:25.097Z,4.18
2023-01-29T12:00:25.093Z,3.97
2023-01-29T12:01:25.075Z,3.86
2023-01-29T12:02:25.067Z,3.79
2023-01-29T12:03:25.305Z,3.87
2023-01-29T12:04:25.041Z,3.74
2023-01-29T12:05:25.039Z,3.85
2023-01-29T12:06:25.074Z,3.89
2023-01-29T12:07:25.008Z,3.89
2023-01-29T12:08:25.015Z,3.99
2023-01-29T12:09:25.095Z,4.04
2023-01-29T12:10:24.985Z,4.14
2023-01-29T12:11:24.964Z,4.30
2023-01-29T12:12:24.967Z,4.27
2023-01-29T12:13:24.943Z,4.32
2023-01-29T12:14:25.050Z,4.34
2023-01-29T12:15:24.942Z,4.41
2023-01-29T12:16:24.975Z,4.51
2023-01-29T12:17:24.900Z,4.23
2023-01-29T12:18:24.901Z,3.95
2023-01-29T12:19:24.990Z,3.86
2023-01-29T12:20:24.873Z,3.57
2023-01-29T12:21:24.868Z,3.59
2023-01-29T12:22:24.855Z,3.71
2023-01-29T12:23:24.846Z,3.95
2023-01-29T12:24:24.834Z,4.20
2023-01-29T12:25:24.842Z,4.37
2023-01-29T12:26:24.833Z,4.58
2023-01-29T12:27:24.801Z,4.73
2023-01-29T12:28:24.787Z,4.58
2023-01-29T12:29:24.772Z,4.40
2023-01-29T12:30:24.832Z,4.47
2023-01-29T12:31:24.779Z,4.32
2023-01-29T12:32:24.751Z,4.29
2023-01-29T12:33:24.738Z,4.41
2023-01-29T12:34:24.732Z,4.55
2023-01-29T12:35:24.710Z,4.33
2023-01-29T12:36:24.696Z,4.26
2023-01-29T12:37:24.691Z,3.95
2023-01-29T12:38:24.686Z,3.68
2023-01-29T12:39:24.671Z,3.77
2023-01-29T12:40:24.658Z,3.78
2023-01-29T12:41:24.651Z,4.14
2023-01-29T12:42:24.643Z,4.41
2023-01-29T12:43:24.832Z,4.36
2023-01-29T12:44:24.624Z,4.72
2023-01-29T12:45:24.831Z,5.02
2023-01-29T12:46:24.617Z,5.06
2023-01-29T12:47:24.578Z,4.77
2023-01-29T12:48:24.573Z,4.69
2023-01-29T12:49:24.568Z,4.72
2023-01-29T12:50:24.571Z,4.44
2023-01-29T12:51:26.607Z,4.22
2023-01-29T12:52:24.524Z,4.52
2023-01-29T12:53:24.535Z,4.83
2023-01-29T12:54:24.513Z,5.09
2023-01-29T12:55:24.518Z,5.09
2023-01-29T12:56:24.486Z,4.98
2023-01-29T12:57:24.484Z,4.85
2023-01-29T12:58:24.470Z,4.99
2023-01-29T12:59:24.466Z,5.09
2023-01-29T13:00:24.437Z,4.70
2023-01-29T13:01:30.441Z,4.27
2023-01-29T13:02:24.431Z,3.97
2023-01-29T13:03:24.472Z,3.83
2023-01-29T13:04:24.405Z,3.99
2023-01-29T13:05:24.414Z,4.24
2023-01-29T13:06:24.383Z,4.41
2023-01-29T13:07:24.384Z,4.27
2023-01-29T13:08:24.356Z,4.33
2023-01-29T13:09:24.558Z,4.36
2023-01-29T13:10:24.542Z,4.42
2023-01-29T13:11:24.333Z,4.47
2023-01-29T13:12:24.359Z,4.62
2023-01-29T13:13:24.316Z,4.51
2023-01-29T13:14:24.391Z,4.40
2023-01-29T13:15:24.286Z,4.23
2023-01-29T13:16:24.392Z,4.07
2023-01-29T13:17:24.264Z,4.07
2023-01-29T13:18:24.268Z,3.93
2023-01-29T13:19:24.273Z,3.79
2023-01-29T13:20:24.228Z,3.57
2023-01-29T13:21:24.221Z,3.28
2023-01-29T13:22:24.208Z,3.32
2023-01-29T13:23:24.203Z,3.28
2023-01-29T13:24:24.188Z,3.35
2023-01-29T13:25:24.232Z,3.33
2023-01-29T13:26:24.200Z,3.32
2023-01-29T13:27:24.365Z,3.24
2023-01-29T13:28:24.144Z,3.20
2023-01-29T13:29:24.157Z,3.11
2023-01-29T13:30:24.131Z,2.99
2023-01-29T13:31:24.150Z,2.82
2023-01-29T13:32:24.105Z,2.62
2023-01-29T13:33:24.102Z,2.53
2023-01-29T13:34:24.286Z,2.47
2023-01-29T13:35:24.073Z,2.44
2023-01-29T13:36:24.167Z,2.34
2023-01-29T13:37:24.049Z,2.38
2023-01-29T13:38:24.235Z,2.45
2023-01-29T13:39:30.050Z,2.41
2023-01-29T13:40:24.227Z,2.45
2023-01-29T13:41:24.010Z,2.51
2023-01-29T13:42:23.997Z,2.52
2023-01-29T13:43:23.990Z,2.59
2023-01-29T13:44:29.985Z,2.63
2023-01-29T13:45:23.968Z,2.69
2023-01-29T13:46:24.020Z,2.55
2023-01-29T13:47:24.158Z,2.53
2023-01-29T13:48:23.932Z,2.56
2023-01-29T13:49:23.927Z,2.53
2023-01-29T13:50:23.921Z,2.59
2023-01-29T13:51:23.902Z,2.63
2023-01-29T13:52:23.894Z,2.72
2023-01-29T13:53:23.988Z,2.81
2023-01-29T13:54:23.870Z,2.87
2023-01-29T13:55:23.879Z,2.84
2023-01-29T13:57:08.779Z,2.90
2023-01-29T13:58:08.546Z,2.95
2023-01-29T13:59:08.598Z,3.00
2023-01-29T14:00:08.528Z,3.02
2023-01-29T14:01:08.572Z,3.05
2023-01-29T14:02:08.550Z,3.06
2023-01-29T14:03:08.503Z,3.06
2023-01-29T14:04:08.487Z,3.00
2023-01-29T14:05:09.072Z,3.17
2023-01-29T14:06:08.466Z,3.23
2023-01-29T14:07:08.470Z,3.39
2023-01-29T14:08:08.443Z,3.31
2023-01-29T14:09:08.434Z,3.49
2023-01-29T14:10:08.424Z,3.68
2023-01-29T14:11:08.417Z,3.64
2023-01-29T14:12:08.405Z,3.64
2023-01-29T14:13:45.110Z,3.71
2023-01-29T14:15:26.053Z,3.77
2023-01-29T14:16:25.776Z,3.79
2023-01-29T14:17:25.761Z,3.78
2023-01-29T14:18:25.766Z,3.82
2023-01-29T14:19:25.751Z,4.01
2023-01-29T14:20:32.337Z,4.22
2023-01-29T14:21:26.769Z,4.29
2023-01-29T14:22:25.717Z,4.23
2023-01-29T14:23:25.697Z,4.22
2023-01-29T14:24:25.685Z,4.15
2023-01-29T14:25:26.126Z,4.04
2023-01-29T14:26:25.724Z,3.92
2023-01-29T14:27:25.656Z,3.72
2023-01-29T14:28:25.643Z,3.56
2023-01-29T14:29:34.365Z,3.39
2023-01-29T14:30:26.796Z,3.24
2023-01-29T14:31:25.752Z,3.06
2023-01-29T14:32:31.611Z,2.85
2023-01-29T14:33:25.589Z,2.81
2023-01-29T14:34:25.589Z,2.77
2023-01-29T14:35:25.571Z,2.66
2023-01-29T14:36:25.768Z,2.62
2023-01-29T14:37:25.548Z,2.59
2023-01-29T14:38:25.541Z,2.53
2023-01-29T14:39:25.531Z,2.45
2023-01-29T14:40:25.521Z,2.44
2023-01-29T14:41:25.517Z,2.40
2023-01-29T14:42:25.514Z,2.33
2023-01-29T14:43:25.491Z,2.33
2023-01-29T14:44:25.483Z,2.19
2023-01-29T14:45:25.465Z,2.15
2023-01-29T14:46:25.549Z,2.15
2023-01-29T14:47:25.453Z,2.17
2023-01-29T14:48:25.645Z,2.13
2023-01-29T14:49:31.643Z,2.15
2023-01-29T14:50:25.411Z,2.16
2023-01-29T14:51:25.467Z,2.19
2023-01-29T14:52:25.393Z,2.16
2023-01-29T14:53:25.400Z,2.15
2023-01-29T14:54:25.388Z,2.09
2023-01-29T14:55:25.366Z,2.15
2023-01-29T14:56:25.467Z,2.16
2023-01-29T14:57:25.544Z,2.16
2023-01-29T14:58:25.329Z,2.11
2023-01-29T14:59:25.337Z,2.05
2023-01-29T15:00:25.313Z,2.05
2023-01-29T15:01:25.426Z,1.97
2023-01-29T15:02:25.337Z,1.93
2023-01-29T15:03:25.284Z,1.95
2023-01-29T15:04:25.261Z,1.87
2023-01-29T15:05:25.259Z,1.91
2023-01-29T15:06:25.281Z,1.91
2023-01-29T15:07:25.282Z,1.88
2023-01-29T15:08:25.226Z,1.86
2023-01-29T15:09:32.714Z,1.84
2023-01-29T15:10:26.261Z,1.79
2023-01-29T15:11:25.215Z,1.73
2023-01-29T15:12:25.235Z,1.68
2023-01-29T15:13:25.180Z,1.66
2023-01-29T15:14:25.172Z,1.70
2023-01-29T15:15:27.253Z,1.65
2023-01-29T15:16:25.168Z,1.62
2023-01-29T15:17:25.136Z,1.62
2023-01-29T15:18:25.227Z,1.59
2023-01-29T15:19:25.113Z,1.51
2023-01-29T15:20:25.112Z,1.52
2023-01-29T15:21:25.096Z,1.44
2023-01-29T15:22:25.082Z,1.45
2023-01-29T15:23:25.087Z,1.42
2023-01-29T15:24:25.062Z,1.44
2023-01-29T15:25:25.047Z,1.37
2023-01-29T15:26:27.108Z,1.37
2023-01-29T15:27:25.229Z,1.33
2023-01-29T15:28:25.036Z,1.40
2023-01-29T15:29:25.061Z,1.41
2023-01-29T15:30:25.015Z,1.41
2023-01-29T15:31:25.128Z,1.37
2023-01-29T15:32:31.000Z,1.40
2023-01-29T15:33:24.994Z,1.40
2023-01-29T15:34:24.967Z,1.40
2023-01-29T15:35:30.951Z,1.29
2023-01-29T15:36:24.945Z,1.34
2023-01-29T15:37:24.927Z,1.29
2023-01-29T15:38:24.927Z,1.30
2023-01-29T15:39:30.935Z,1.21
2023-01-29T15:40:24.888Z,1.19
2023-01-29T15:41:24.892Z,1.15
2023-01-29T15:42:25.094Z,1.08
2023-01-29T15:43:24.866Z,1.11
2023-01-29T15:44:25.159Z,0.99
2023-01-29T15:45:24.840Z,1.01
2023-01-29T15:46:30.862Z,0.97
2023-01-29T15:47:24.895Z,0.92
2023-01-29T15:48:24.826Z,0.87
2023-01-29T15:49:24.805Z,0.83
2023-01-29T15:50:24.823Z,0.72
2023-01-29T15:51:24.789Z,0.71
2023-01-29T15:52:24.786Z,0.71
2023-01-29T15:53:24.761Z,0.57
2023-01-29T15:54:24.763Z,0.54
2023-01-29T15:55:24.747Z,0.44
2023-01-29T15:56:24.739Z,0.33
2023-01-29T15:57:24.724Z,0.26
2023-01-29T15:58:24.711Z,0.14
2023-01-29T15:59:24.913Z,0.15
2023-01-29T16:00:24.689Z,0.10
2023-01-29T16:01:30.942Z,0.08
2023-01-29T16:02:24.695Z,0.00
2023-01-29T17:48:23.661Z,-1.00
2023-01-29T20:02:03.168Z,1.01
2023-01-29T20:03:35.994Z,1.04
2023-01-29T20:04:35.855Z,1.03
2023-01-29T20:06:35.837Z,1.01
2023-01-29T20:07:35.844Z,1.04
2023-01-29T20:08:35.816Z,1.03
2023-01-29T20:09:35.803Z,1.05
2023-01-29T20:10:35.791Z,1.07
2023-01-29T20:11:35.784Z,1.01
2023-01-29T20:12:35.785Z,1.01
2023-01-29T20:13:35.761Z,1.03
2023-01-29T20:14:41.760Z,1.01
2023-01-29T20:15:35.734Z,1.01
2023-01-29T20:19:35.700Z,1.03
2023-01-29T20:21:35.681Z,1.01
2023-01-29T20:22:35.672Z,1.03
2023-01-29T20:23:38.421Z,1.01
2023-01-29T20:24:35.750Z,1.07
2023-01-29T20:25:35.644Z,1.05
2023-01-29T20:26:35.645Z,1.01
2023-01-29T20:27:35.622Z,1.08
2023-01-29T20:28:35.639Z,1.10
2023-01-29T20:29:35.604Z,1.05
2023-01-29T20:30:41.653Z,1.10
2023-01-29T20:31:35.636Z,1.11
2023-01-29T20:32:35.570Z,1.08
2023-01-29T20:33:37.499Z,1.10
2023-01-29T20:34:35.575Z,1.11
2023-01-29T20:35:35.541Z,1.08
2023-01-29T20:36:35.538Z,1.08
2023-01-29T20:37:35.534Z,1.13
2023-01-29T20:38:35.520Z,1.10
2023-01-29T20:39:35.505Z,1.14
2023-01-29T20:40:35.488Z,1.11
2023-01-29T20:41:35.482Z,1.11
2023-01-29T20:42:35.680Z,1.10
2023-01-29T20:43:35.464Z,1.13
2023-01-29T20:44:41.450Z,1.22
2023-01-29T20:45:35.463Z,1.21
2023-01-29T20:47:08.224Z,1.22
2023-01-29T20:48:08.222Z,1.27
2023-01-29T20:49:08.203Z,1.22
2023-01-29T20:50:08.199Z,1.26
2023-01-29T20:51:08.385Z,1.32
2023-01-29T20:52:08.179Z,1.29
2023-01-29T20:53:14.181Z,1.29
2023-01-29T20:54:08.181Z,1.29
2023-01-29T20:55:08.153Z,1.33
2023-01-29T20:56:08.257Z,1.30
2023-01-29T20:57:08.125Z,1.27
2023-01-29T20:58:08.112Z,1.30
2023-01-29T20:59:08.099Z,1.32
2023-01-29T21:00:08.093Z,1.32
2023-01-29T21:01:08.134Z,1.30
2023-01-29T21:02:08.108Z,1.30
2023-01-29T21:03:08.266Z,1.27
2023-01-29T21:04:08.070Z,1.33
2023-01-29T21:05:10.124Z,1.30
2023-01-29T21:06:08.043Z,1.26
2023-01-29T21:07:08.025Z,1.30
2023-01-29T21:08:08.007Z,1.27
2023-01-29T21:09:08.019Z,1.30
2023-01-29T21:10:07.998Z,1.27
2023-01-29T21:11:07.988Z,1.30
2023-01-29T21:12:07.985Z,1.29
2023-01-29T21:13:13.977Z,1.30
2023-01-29T21:14:07.966Z,1.30
2023-01-29T21:15:07.954Z,1.32
2023-01-29T21:16:08.045Z,1.27
2023-01-29T21:17:07.926Z,1.29
2023-01-29T21:18:07.912Z,1.26
2023-01-29T21:19:07.920Z,1.29
2023-01-29T21:20:07.895Z,1.26
2023-01-29T21:21:07.878Z,1.30
2023-01-29T21:22:07.874Z,1.27
2023-01-29T21:23:08.016Z,1.29
2023-01-29T21:24:07.851Z,1.26
2023-01-29T21:25:07.869Z,1.23
2023-01-29T21:26:07.843Z,1.26
2023-01-29T21:27:07.828Z,1.26
2023-01-29T21:28:07.800Z,1.30
2023-01-29T21:29:07.796Z,1.32
2023-01-29T21:30:07.992Z,1.29
2023-01-29T21:31:07.787Z,1.27
2023-01-29T21:32:07.808Z,1.32
2023-01-29T21:33:07.860Z,1.30
2023-01-29T21:34:07.750Z,1.30
2023-01-29T21:35:07.735Z,1.30
2023-01-29T21:36:07.734Z,1.27
2023-01-29T21:37:07.730Z,1.32
2023-01-29T21:38:07.704Z,1.26
2023-01-29T21:39:07.707Z,1.29
2023-01-29T21:40:07.688Z,1.30
2023-01-29T21:41:07.675Z,1.30
2023-01-29T21:42:07.677Z,1.34
2023-01-29T21:43:07.660Z,1.30
2023-01-29T21:44:07.658Z,1.32
2023-01-29T21:45:07.636Z,1.30
2023-01-29T21:46:07.691Z,1.33
2023-01-29T21:47:07.815Z,1.32
2023-01-29T21:48:07.602Z,1.30
2023-01-29T21:49:07.594Z,1.32
2023-01-29T21:50:07.593Z,1.27
2023-01-29T21:51:07.590Z,1.33
2023-01-29T21:52:07.561Z,1.32
2023-01-29T21:53:07.565Z,1.37
2023-01-29T21:54:07.543Z,1.34
2023-01-29T21:55:07.531Z,1.33
2023-01-29T21:56:07.521Z,1.37
2023-01-29T21:57:07.519Z,1.37
2023-01-29T21:58:07.509Z,1.33
2023-01-29T21:59:07.489Z,1.36
2023-01-29T22:00:07.486Z,1.34
2023-01-29T22:01:11.550Z,1.34
2023-01-29T22:02:08.686Z,1.37
2023-01-29T22:03:07.540Z,1.40
2023-01-29T22:04:07.445Z,1.37
2023-01-29T22:05:18.264Z,1.36
2023-01-29T22:06:08.470Z,1.36
2023-01-29T22:07:07.412Z,1.40
2023-01-29T22:08:07.399Z,1.37
2023-01-29T22:09:13.395Z,1.36
2023-01-29T22:10:07.384Z,1.36
2023-01-29T22:11:07.375Z,1.40
2023-01-29T22:12:07.373Z,1.40
2023-01-29T22:13:07.343Z,1.44
2023-01-29T22:14:07.389Z,1.41
2023-01-29T22:15:07.328Z,1.40
2023-01-29T22:16:07.316Z,1.37
2023-01-29T22:17:07.349Z,1.41
2023-01-29T22:18:07.322Z,1.44
2023-01-29T22:19:07.337Z,1.41
2023-01-29T22:20:07.271Z,1.37
2023-01-29T22:21:07.273Z,1.42
2023-01-29T22:22:07.260Z,1.45
2023-01-29T22:23:07.259Z,1.44
2023-01-29T22:24:07.346Z,1.40
2023-01-29T22:25:07.242Z,1.40
2023-01-29T22:26:07.224Z,1.44
2023-01-29T22:27:07.206Z,1.41
2023-01-29T22:28:07.200Z,1.44
2023-01-29T22:29:07.185Z,1.48
2023-01-29T22:30:07.177Z,1.42
2023-01-29T22:31:07.172Z,1.41
2023-01-29T22:32:07.207Z,1.42
2023-01-29T22:33:07.135Z,1.41
2023-01-29T22:34:07.346Z,1.44
2023-01-29T22:35:07.151Z,1.41
2023-01-29T22:36:07.120Z,1.44
2023-01-29T22:37:07.096Z,1.42
2023-01-29T22:38:07.105Z,1.45
2023-01-29T22:39:07.077Z,1.44
2023-01-29T22:40:07.275Z,1.40
2023-01-29T22:41:07.061Z,1.42
2023-01-29T22:42:07.057Z,1.42
2023-01-29T22:43:07.041Z,1.45
2023-01-29T22:44:07.238Z,1.44
2023-01-29T22:45:07.120Z,1.44
2023-01-29T22:46:07.033Z,1.42
2023-01-29T22:47:06.996Z,1.42
2023-01-29T22:48:08.175Z,1.40
2023-01-29T22:49:07.176Z,1.40
2023-01-29T22:50:07.100Z,1.41
2023-01-29T22:51:06.955Z,1.42
2023-01-29T22:52:06.941Z,1.41
2023-01-29T22:53:06.939Z,1.40
2023-01-29T22:54:06.927Z,1.42
2023-01-29T22:55:06.957Z,1.40
2023-01-29T22:56:06.903Z,1.37
2023-01-29T22:57:06.888Z,1.40
2023-01-29T22:58:06.887Z,1.36
2023-01-29T22:59:06.872Z,1.40
2023-01-29T23:00:06.867Z,1.37
2023-01-29T23:01:06.849Z,1.37
2023-01-29T23:02:06.841Z,1.36
2023-01-29T23:03:06.827Z,1.42
2023-01-29T23:04:06.827Z,1.37
2023-01-29T23:05:06.813Z,1.37
2023-01-29T23:06:06.835Z,1.37
2023-01-29T23:07:06.791Z,1.41
2023-01-29T23:08:06.787Z,1.33
2023-01-29T23:09:43.520Z,1.42
2023-01-29T23:10:43.513Z,1.37
2023-01-29T23:11:43.495Z,1.37
2023-01-29T23:12:43.490Z,1.40
2023-01-29T23:13:43.481Z,1.37
2023-01-29T23:14:43.469Z,1.40
2023-01-29T23:15:43.545Z,1.37
2023-01-29T23:16:43.446Z,1.37
2023-01-29T23:17:43.450Z,1.42
2023-01-29T23:18:43.429Z,1.40
2023-01-29T23:19:43.423Z,1.36
2023-01-29T23:20:43.408Z,1.37
2023-01-29T23:21:43.399Z,1.37
2023-01-29T23:22:43.601Z,1.37
2023-01-29T23:23:45.009Z,1.36
2023-01-29T23:24:43.369Z,1.40
2023-01-29T23:25:43.357Z,1.36
2023-01-29T23:26:43.479Z,1.40
2023-01-29T23:27:43.341Z,1.41
2023-01-29T23:28:43.330Z,1.36
2023-01-29T23:29:43.339Z,1.41
2023-01-29T23:30:43.383Z,1.37
2023-01-29T23:31:43.371Z,1.41
2023-01-29T23:32:43.286Z,1.40
2023-01-29T23:33:43.272Z,1.41
2023-01-29T23:34:43.275Z,1.37
2023-01-29T23:35:43.254Z,1.40
2023-01-29T23:36:43.275Z,1.40
2023-01-29T23:37:43.645Z,1.44
2023-01-29T23:38:43.238Z,1.44
2023-01-29T23:39:43.230Z,1.45
2023-01-29T23:40:43.207Z,1.41
2023-01-29T23:41:43.202Z,1.44
2023-01-29T23:42:43.191Z,1.42
2023-01-29T23:43:43.187Z,1.45
2023-01-29T23:44:43.171Z,1.42
2023-01-29T23:45:43.161Z,1.47
2023-01-29T23:46:43.204Z,1.48
2023-01-29T23:47:43.143Z,1.44
2023-01-29T23:48:43.338Z,1.48
2023-01-29T23:49:43.122Z,1.44
2023-01-29T23:50:43.114Z,1.52
2023-01-29T23:51:43.105Z,1.48
2023-01-29T23:52:43.301Z,1.51
2023-01-29T23:53:43.095Z,1.48
2023-01-29T23:54:43.077Z,1.47
2023-01-29T23:55:43.081Z,1.50
2023-01-29T23:56:43.072Z,1.50
2023-01-29T23:57:49.070Z,1.52
2023-01-29T23:58:43.039Z,1.52
2023-01-29T23:59:43.090Z,1.52
